sensor_id;sensor_type;location;lat;lon;timestamp;temperature;humidity
5392;DHT22;2719;53.624;9.786;2024-02-28T00:01:05;5.40;99.90
5392;DHT22;2719;53.624;9.786;2024-02-28T00:03:33;5.40;99.90
5392;DHT22;2719;53.624;9.786;2024-02-28T00:06:00;5.40;99.90
5392;DHT22;2719;53.624;9.786;2024-02-28T00:08:27;5.30;99.90
5392;DHT22;2719;53.624;9.786;2024-02-28T00:10:53;5.30;99.90
5392;DHT22;2719;53.624;9.786;2024-02-28T00:13:20;5.30;99.90
5392;DHT22;2719;53.624;9.786;2024-02-28T00:15:48;5.30;99.90
5392;DHT22;2719;53.624;9.786;2024-02-28T00:18:14;5.40;99.90
5392;DHT22;2719;53.624;9.786;2024-02-28T00:20:44;5.40;99.90
5392;DHT22;2719;53.624;9.786;2024-02-28T00:23:11;5.40;99.90
5392;DHT22;2719;53.624;9.786;2024-02-28T00:25:38;5.40;99.90
5392;DHT22;2719;53.624;9.786;2024-02-28T00:28:04;5.50;99.90
5392;DHT22;2719;53.624;9.786;2024-02-28T00:30:31;5.40;99.90
5392;DHT22;2719;53.624;9.786;2024-02-28T00:32:58;5.30;99.90
5392;DHT22;2719;53.624;9.786;2024-02-28T00:35:24;5.20;99.90
5392;DHT22;2719;53.624;9.786;2024-02-28T00:37:52;5.20;99.90
5392;DHT22;2719;53.624;9.786;2024-02-28T00:40:19;5.30;99.90
5392;DHT22;2719;53.624;9.786;2024-02-28T00:42:46;5.20;99.90
5392;DHT22;2719;53.624;9.786;2024-02-28T00:45:13;5.20;99.90
5392;DHT22;2719;53.624;9.786;2024-02-28T00:47:40;5.20;99.90
5392;DHT22;2719;53.624;9.786;2024-02-28T00:50:07;5.20;99.90
5392;DHT22;2719;53.624;9.786;2024-02-28T00:52:34;5.00;99.90
5392;DHT22;2719;53.624;9.786;2024-02-28T00:55:02;5.00;99.90
5392;DHT22;2719;53.624;9.786;2024-02-28T00:57:30;4.90;99.90
5392;DHT22;2719;53.624;9.786;2024-02-28T00:59:57;4.90;99.90
5392;DHT22;2719;53.624;9.786;2024-02-28T01:02:23;4.90;99.90
5392;DHT22;2719;53.624;9.786;2024-02-28T01:04:50;4.90;99.90
5392;DHT22;2719;53.624;9.786;2024-02-28T01:07:17;4.90;99.90
5392;DHT22;2719;53.624;9.786;2024-02-28T01:09:43;5.00;99.90
5392;DHT22;2719;53.624;9.786;2024-02-28T01:12:11;5.00;99.90
5392;DHT22;2719;53.624;9.786;2024-02-28T01:14:38;5.10;99.90
5392;DHT22;2719;53.624;9.786;2024-02-28T01:17:05;5.10;99.90
5392;DHT22;2719;53.624;9.786;2024-02-28T01:19:31;5.10;99.90
5392;DHT22;2719;53.624;9.786;2024-02-28T01:21:58;5.00;99.90
5392;DHT22;2719;53.624;9.786;2024-02-28T01:24:24;4.90;99.90
5392;DHT22;2719;53.624;9.786;2024-02-28T01:26:51;4.80;99.90
5392;DHT22;2719;53.624;9.786;2024-02-28T01:29:19;4.80;99.90
5392;DHT22;2719;53.624;9.786;2024-02-28T01:31:46;4.70;99.90
5392;DHT22;2719;53.624;9.786;2024-02-28T01:34:12;4.70;99.90
5392;DHT22;2719;53.624;9.786;2024-02-28T01:36:39;4.70;99.90
5392;DHT22;2719;53.624;9.786;2024-02-28T01:39:05;4.70;99.90
5392;DHT22;2719;53.624;9.786;2024-02-28T01:41:32;4.70;99.90
5392;DHT22;2719;53.624;9.786;2024-02-28T01:43:59;4.70;99.90
5392;DHT22;2719;53.624;9.786;2024-02-28T01:46:28;4.70;99.90
5392;DHT22;2719;53.624;9.786;2024-02-28T01:48:56;4.70;1.00
5392;DHT22;2719;53.624;9.786;2024-02-28T01:51:25;4.70;99.90
5392;DHT22;2719;53.624;9.786;2024-02-28T01:53:54;4.70;99.90
5392;DHT22;2719;53.624;9.786;2024-02-28T01:56:21;4.50;99.90
5392;DHT22;2719;53.624;9.786;2024-02-28T01:58:49;4.50;1.00
5392;DHT22;2719;53.624;9.786;2024-02-28T02:01:17;4.50;1.00
5392;DHT22;2719;53.624;9.786;2024-02-28T02:03:45;4.60;99.90
5392;DHT22;2719;53.624;9.786;2024-02-28T02:06:12;4.50;1.00
5392;DHT22;2719;53.624;9.786;2024-02-28T02:08:39;4.50;1.00
5392;DHT22;2719;53.624;9.786;2024-02-28T02:11:06;4.50;1.00
5392;DHT22;2719;53.624;9.786;2024-02-28T02:13:32;4.60;1.00
5392;DHT22;2719;53.624;9.786;2024-02-28T02:16:00;4.50;99.90
5392;DHT22;2719;53.624;9.786;2024-02-28T02:18:27;4.50;1.00
5392;DHT22;2719;53.624;9.786;2024-02-28T02:21:04;4.60;1.00
5392;DHT22;2719;53.624;9.786;2024-02-28T02:23:32;4.60;1.00
5392;DHT22;2719;53.624;9.786;2024-02-28T02:25:59;4.40;99.90
5392;DHT22;2719;53.624;9.786;2024-02-28T02:28:25;4.40;1.00
5392;DHT22;2719;53.624;9.786;2024-02-28T02:30:52;4.40;1.00
5392;DHT22;2719;53.624;9.786;2024-02-28T02:33:19;4.40;1.00
5392;DHT22;2719;53.624;9.786;2024-02-28T02:35:45;4.40;1.00
5392;DHT22;2719;53.624;9.786;2024-02-28T02:38:12;4.40;1.00
5392;DHT22;2719;53.624;9.786;2024-02-28T02:40:40;4.50;1.00
5392;DHT22;2719;53.624;9.786;2024-02-28T02:43:06;4.60;99.90
5392;DHT22;2719;53.624;9.786;2024-02-28T02:45:33;4.50;1.00
5392;DHT22;2719;53.624;9.786;2024-02-28T02:47:59;4.60;99.90
5392;DHT22;2719;53.624;9.786;2024-02-28T02:50:26;4.60;99.90
5392;DHT22;2719;53.624;9.786;2024-02-28T02:52:53;4.40;99.90
5392;DHT22;2719;53.624;9.786;2024-02-28T02:55:19;4.50;1.00
5392;DHT22;2719;53.624;9.786;2024-02-28T02:57:47;4.50;99.90
5392;DHT22;2719;53.624;9.786;2024-02-28T03:00:14;4.50;1.00
5392;DHT22;2719;53.624;9.786;2024-02-28T03:02:40;4.60;1.00
5392;DHT22;2719;53.624;9.786;2024-02-28T03:05:07;4.70;99.90
5392;DHT22;2719;53.624;9.786;2024-02-28T03:07:35;4.70;1.00
5392;DHT22;2719;53.624;9.786;2024-02-28T03:10:01;4.80;99.90
5392;DHT22;2719;53.624;9.786;2024-02-28T03:12:28;4.80;99.90
5392;DHT22;2719;53.624;9.786;2024-02-28T03:14:56;4.90;99.90
5392;DHT22;2719;53.624;9.786;2024-02-28T03:17:23;5.00;99.90
5392;DHT22;2719;53.624;9.786;2024-02-28T03:19:50;5.00;99.90
5392;DHT22;2719;53.624;9.786;2024-02-28T03:22:16;5.10;99.90
5392;DHT22;2719;53.624;9.786;2024-02-28T03:24:43;5.20;99.90
5392;DHT22;2719;53.624;9.786;2024-02-28T03:27:09;5.20;99.90
5392;DHT22;2719;53.624;9.786;2024-02-28T03:29:36;5.20;99.90
5392;DHT22;2719;53.624;9.786;2024-02-28T03:32:05;5.20;99.90
5392;DHT22;2719;53.624;9.786;2024-02-28T03:34:32;5.20;99.90
5392;DHT22;2719;53.624;9.786;2024-02-28T03:36:59;5.20;99.90
5392;DHT22;2719;53.624;9.786;2024-02-28T03:39:25;5.10;99.90
5392;DHT22;2719;53.624;9.786;2024-02-28T03:41:52;5.20;99.90
5392;DHT22;2719;53.624;9.786;2024-02-28T03:44:18;5.20;99.90
5392;DHT22;2719;53.624;9.786;2024-02-28T03:46:46;5.30;99.90
5392;DHT22;2719;53.624;9.786;2024-02-28T03:49:14;5.30;99.90
5392;DHT22;2719;53.624;9.786;2024-02-28T03:51:41;5.30;99.90
5392;DHT22;2719;53.624;9.786;2024-02-28T03:54:08;5.30;99.90
5392;DHT22;2719;53.624;9.786;2024-02-28T03:56:34;5.30;99.90
5392;DHT22;2719;53.624;9.786;2024-02-28T03:59:01;5.20;99.90
5392;DHT22;2719;53.624;9.786;2024-02-28T04:01:29;5.30;99.90
5392;DHT22;2719;53.624;9.786;2024-02-28T04:03:55;5.30;99.90
5392;DHT22;2719;53.624;9.786;2024-02-28T04:06:24;5.30;99.90
5392;DHT22;2719;53.624;9.786;2024-02-28T04:08:50;5.40;99.90
5392;DHT22;2719;53.624;9.786;2024-02-28T04:11:17;5.30;99.90
5392;DHT22;2719;53.624;9.786;2024-02-28T04:13:43;5.30;99.90
5392;DHT22;2719;53.624;9.786;2024-02-28T04:16:10;5.20;99.90
5392;DHT22;2719;53.624;9.786;2024-02-28T04:18:37;5.20;99.90
5392;DHT22;2719;53.624;9.786;2024-02-28T04:21:03;5.10;99.90
5392;DHT22;2719;53.624;9.786;2024-02-28T04:23:31;5.10;99.90
5392;DHT22;2719;53.624;9.786;2024-02-28T04:25:58;5.20;99.90
5392;DHT22;2719;53.624;9.786;2024-02-28T04:28:25;5.10;99.90
5392;DHT22;2719;53.624;9.786;2024-02-28T04:30:51;5.20;99.90
5392;DHT22;2719;53.624;9.786;2024-02-28T04:33:18;5.30;99.90
5392;DHT22;2719;53.624;9.786;2024-02-28T04:35:44;5.30;99.90
5392;DHT22;2719;53.624;9.786;2024-02-28T04:38:11;5.30;99.90
5392;DHT22;2719;53.624;9.786;2024-02-28T04:40:39;5.30;99.90
5392;DHT22;2719;53.624;9.786;2024-02-28T04:43:06;5.40;99.90
5392;DHT22;2719;53.624;9.786;2024-02-28T04:45:32;5.40;99.90
5392;DHT22;2719;53.624;9.786;2024-02-28T04:47:59;5.40;99.90
5392;DHT22;2719;53.624;9.786;2024-02-28T04:50:25;5.40;99.90
5392;DHT22;2719;53.624;9.786;2024-02-28T04:52:52;5.40;99.90
5392;DHT22;2719;53.624;9.786;2024-02-28T04:55:19;5.40;99.90
5392;DHT22;2719;53.624;9.786;2024-02-28T04:57:47;5.40;99.90
5392;DHT22;2719;53.624;9.786;2024-02-28T05:00:14;5.40;99.90
5392;DHT22;2719;53.624;9.786;2024-02-28T05:02:40;5.30;99.90
5392;DHT22;2719;53.624;9.786;2024-02-28T05:05:07;5.30;99.90
5392;DHT22;2719;53.624;9.786;2024-02-28T05:07:34;5.30;99.90
5392;DHT22;2719;53.624;9.786;2024-02-28T05:10:00;5.30;99.90
5392;DHT22;2719;53.624;9.786;2024-02-28T05:12:27;5.30;99.90
5392;DHT22;2719;53.624;9.786;2024-02-28T05:14:55;5.40;99.90
5392;DHT22;2719;53.624;9.786;2024-02-28T05:17:22;5.40;99.90
5392;DHT22;2719;53.624;9.786;2024-02-28T05:19:48;5.50;99.90
5392;DHT22;2719;53.624;9.786;2024-02-28T05:22:15;5.40;99.90
5392;DHT22;2719;53.624;9.786;2024-02-28T05:24:41;5.40;99.90
5392;DHT22;2719;53.624;9.786;2024-02-28T05:27:09;5.40;99.90
5392;DHT22;2719;53.624;9.786;2024-02-28T05:29:35;5.40;99.90
5392;DHT22;2719;53.624;9.786;2024-02-28T05:32:04;5.40;99.90
5392;DHT22;2719;53.624;9.786;2024-02-28T05:34:31;5.40;99.90
5392;DHT22;2719;53.624;9.786;2024-02-28T05:36:57;5.40;99.90
5392;DHT22;2719;53.624;9.786;2024-02-28T05:39:26;5.40;99.90
5392;DHT22;2719;53.624;9.786;2024-02-28T05:41:54;5.40;99.90
5392;DHT22;2719;53.624;9.786;2024-02-28T05:44:21;5.30;99.90
5392;DHT22;2719;53.624;9.786;2024-02-28T05:46:47;5.30;99.90
5392;DHT22;2719;53.624;9.786;2024-02-28T05:49:16;5.30;99.90
5392;DHT22;2719;53.624;9.786;2024-02-28T05:51:42;5.20;1.00
5392;DHT22;2719;53.624;9.786;2024-02-28T05:54:10;5.20;1.00
5392;DHT22;2719;53.624;9.786;2024-02-28T05:56:36;5.20;99.90
5392;DHT22;2719;53.624;9.786;2024-02-28T05:59:03;5.20;1.00
5392;DHT22;2719;53.624;9.786;2024-02-28T06:01:30;5.20;1.00
5392;DHT22;2719;53.624;9.786;2024-02-28T06:03:56;5.10;1.00
5392;DHT22;2719;53.624;9.786;2024-02-28T06:06:25;5.10;1.00
5392;DHT22;2719;53.624;9.786;2024-02-28T06:08:52;5.00;1.00
5392;DHT22;2719;53.624;9.786;2024-02-28T06:11:18;5.00;1.00
5392;DHT22;2719;53.624;9.786;2024-02-28T06:13:45;4.90;1.00
5392;DHT22;2719;53.624;9.786;2024-02-28T06:16:14;5.00;1.00
5392;DHT22;2719;53.624;9.786;2024-02-28T06:18:41;5.00;1.00
5392;DHT22;2719;53.624;9.786;2024-02-28T06:21:08;5.00;1.00
5392;DHT22;2719;53.624;9.786;2024-02-28T06:23:36;4.90;1.00
5392;DHT22;2719;53.624;9.786;2024-02-28T06:26:03;4.90;1.00
5392;DHT22;2719;53.624;9.786;2024-02-28T06:28:29;4.90;1.00
5392;DHT22;2719;53.624;9.786;2024-02-28T06:30:57;4.70;7.40
5392;DHT22;2719;53.624;9.786;2024-02-28T06:33:24;4.60;99.90
5392;DHT22;2719;53.624;9.786;2024-02-28T06:35:50;4.60;1.00
5392;DHT22;2719;53.624;9.786;2024-02-28T06:38:17;4.60;1.00
5392;DHT22;2719;53.624;9.786;2024-02-28T06:40:45;4.60;99.90
5392;DHT22;2719;53.624;9.786;2024-02-28T06:43:12;4.60;99.90
5392;DHT22;2719;53.624;9.786;2024-02-28T06:45:38;4.60;99.90
5392;DHT22;2719;53.624;9.786;2024-02-28T06:48:06;4.70;99.90
5392;DHT22;2719;53.624;9.786;2024-02-28T06:50:33;4.70;99.90
5392;DHT22;2719;53.624;9.786;2024-02-28T06:53:00;4.70;99.90
5392;DHT22;2719;53.624;9.786;2024-02-28T06:55:26;4.80;99.90
5392;DHT22;2719;53.624;9.786;2024-02-28T06:57:54;4.70;99.90
5392;DHT22;2719;53.624;9.786;2024-02-28T07:00:22;4.70;1.00
5392;DHT22;2719;53.624;9.786;2024-02-28T07:02:48;4.70;1.00
5392;DHT22;2719;53.624;9.786;2024-02-28T07:05:16;4.70;1.00
5392;DHT22;2719;53.624;9.786;2024-02-28T07:07:42;4.70;1.00
5392;DHT22;2719;53.624;9.786;2024-02-28T07:10:10;4.70;89.60
5392;DHT22;2719;53.624;9.786;2024-02-28T07:12:36;4.70;1.00
5392;DHT22;2719;53.624;9.786;2024-02-28T07:15:05;4.60;99.90
5392;DHT22;2719;53.624;9.786;2024-02-28T07:17:32;4.70;1.00
5392;DHT22;2719;53.624;9.786;2024-02-28T07:19:58;4.70;99.90
5392;DHT22;2719;53.624;9.786;2024-02-28T07:22:25;4.70;99.90
5392;DHT22;2719;53.624;9.786;2024-02-28T07:24:52;4.80;1.00
5392;DHT22;2719;53.624;9.786;2024-02-28T07:27:18;4.70;99.90
5392;DHT22;2719;53.624;9.786;2024-02-28T07:29:45;4.80;1.00
5392;DHT22;2719;53.624;9.786;2024-02-28T07:32:13;4.80;1.00
5392;DHT22;2719;53.624;9.786;2024-02-28T07:34:39;4.80;1.00
5392;DHT22;2719;53.624;9.786;2024-02-28T07:37:06;4.80;1.00
5392;DHT22;2719;53.624;9.786;2024-02-28T07:39:32;4.80;1.00
5392;DHT22;2719;53.624;9.786;2024-02-28T07:41:59;4.80;99.90
5392;DHT22;2719;53.624;9.786;2024-02-28T07:44:26;4.80;1.00
5392;DHT22;2719;53.624;9.786;2024-02-28T07:46:56;4.70;1.00
5392;DHT22;2719;53.624;9.786;2024-02-28T07:49:24;4.80;99.90
5392;DHT22;2719;53.624;9.786;2024-02-28T07:51:51;4.80;1.00
5392;DHT22;2719;53.624;9.786;2024-02-28T07:54:17;4.90;1.00
5392;DHT22;2719;53.624;9.786;2024-02-28T07:56:44;4.90;20.90
5392;DHT22;2719;53.624;9.786;2024-02-28T07:59:11;4.80;99.90
5392;DHT22;2719;53.624;9.786;2024-02-28T08:01:37;4.90;84.20
5392;DHT22;2719;53.624;9.786;2024-02-28T08:04:05;4.80;1.00
5392;DHT22;2719;53.624;9.786;2024-02-28T08:06:33;4.80;99.90
5392;DHT22;2719;53.624;9.786;2024-02-28T08:08:59;4.80;99.90
5392;DHT22;2719;53.624;9.786;2024-02-28T08:11:26;4.80;99.90
5392;DHT22;2719;53.624;9.786;2024-02-28T08:13:53;4.70;99.90
5392;DHT22;2719;53.624;9.786;2024-02-28T08:16:20;4.70;99.90
5392;DHT22;2719;53.624;9.786;2024-02-28T08:18:46;4.80;1.00
5392;DHT22;2719;53.624;9.786;2024-02-28T08:21:13;4.80;1.00
5392;DHT22;2719;53.624;9.786;2024-02-28T08:23:41;4.90;99.90
5392;DHT22;2719;53.624;9.786;2024-02-28T08:26:07;4.80;1.00
5392;DHT22;2719;53.624;9.786;2024-02-28T08:28:34;5.00;5.60
5392;DHT22;2719;53.624;9.786;2024-02-28T08:31:01;5.00;1.00
5392;DHT22;2719;53.624;9.786;2024-02-28T08:33:27;5.10;99.90
5392;DHT22;2719;53.624;9.786;2024-02-28T08:35:54;5.20;99.90
5392;DHT22;2719;53.624;9.786;2024-02-28T08:38:21;5.30;99.90
5392;DHT22;2719;53.624;9.786;2024-02-28T08:40:48;5.20;1.00
5392;DHT22;2719;53.624;9.786;2024-02-28T08:43:15;5.30;99.90
5392;DHT22;2719;53.624;9.786;2024-02-28T08:45:42;5.20;1.00
5392;DHT22;2719;53.624;9.786;2024-02-28T08:48:08;5.20;99.90
5392;DHT22;2719;53.624;9.786;2024-02-28T08:50:35;5.30;99.90
5392;DHT22;2719;53.624;9.786;2024-02-28T08:53:02;5.30;1.00
5392;DHT22;2719;53.624;9.786;2024-02-28T08:55:29;5.40;1.00
5392;DHT22;2719;53.624;9.786;2024-02-28T08:57:57;5.40;99.90
5392;DHT22;2719;53.624;9.786;2024-02-28T09:00:24;5.30;1.00
5392;DHT22;2719;53.624;9.786;2024-02-28T09:02:51;5.40;1.00
5392;DHT22;2719;53.624;9.786;2024-02-28T09:05:17;5.40;99.90
5392;DHT22;2719;53.624;9.786;2024-02-28T09:07:44;5.40;99.90
5392;DHT22;2719;53.624;9.786;2024-02-28T09:10:11;5.40;1.00
5392;DHT22;2719;53.624;9.786;2024-02-28T09:12:38;5.50;99.90
5392;DHT22;2719;53.624;9.786;2024-02-28T09:15:07;5.60;1.00
5392;DHT22;2719;53.624;9.786;2024-02-28T09:17:34;5.70;63.80
5392;DHT22;2719;53.624;9.786;2024-02-28T09:20:00;5.60;1.00
5392;DHT22;2719;53.624;9.786;2024-02-28T09:22:29;5.70;1.00
5392;DHT22;2719;53.624;9.786;2024-02-28T09:24:56;5.80;1.00
5392;DHT22;2719;53.624;9.786;2024-02-28T09:27:23;5.80;99.90
5392;DHT22;2719;53.624;9.786;2024-02-28T09:29:50;5.80;1.00
5392;DHT22;2719;53.624;9.786;2024-02-28T09:32:18;5.80;1.00
5392;DHT22;2719;53.624;9.786;2024-02-28T09:34:44;5.80;99.90
5392;DHT22;2719;53.624;9.786;2024-02-28T09:37:11;5.90;1.00
5392;DHT22;2719;53.624;9.786;2024-02-28T09:39:38;6.00;99.90
5392;DHT22;2719;53.624;9.786;2024-02-28T09:42:06;6.00;99.90
5392;DHT22;2719;53.624;9.786;2024-02-28T09:44:34;6.00;99.90
5392;DHT22;2719;53.624;9.786;2024-02-28T09:47:01;6.00;99.90
5392;DHT22;2719;53.624;9.786;2024-02-28T09:49:31;6.00;1.00
5392;DHT22;2719;53.624;9.786;2024-02-28T09:51:58;6.10;1.00
5392;DHT22;2719;53.624;9.786;2024-02-28T09:54:25;6.10;75.90
5392;DHT22;2719;53.624;9.786;2024-02-28T09:56:52;6.30;99.90
5392;DHT22;2719;53.624;9.786;2024-02-28T09:59:19;6.60;1.00
5392;DHT22;2719;53.624;9.786;2024-02-28T10:01:51;6.70;1.00
5392;DHT22;2719;53.624;9.786;2024-02-28T10:04:20;6.70;1.00
5392;DHT22;2719;53.624;9.786;2024-02-28T10:06:48;6.80;99.90
5392;DHT22;2719;53.624;9.786;2024-02-28T10:09:15;6.80;85.40
5392;DHT22;2719;53.624;9.786;2024-02-28T10:15:05;6.70;1.00
5392;DHT22;2719;53.624;9.786;2024-02-28T10:17:31;6.70;99.90
5392;DHT22;2719;53.624;9.786;2024-02-28T10:19:58;6.80;99.90
5392;DHT22;2719;53.624;9.786;2024-02-28T10:22:26;6.90;4.30
5392;DHT22;2719;53.624;9.786;2024-02-28T10:24:57;7.00;1.00
5392;DHT22;2719;53.624;9.786;2024-02-28T10:27:23;7.10;1.00
5392;DHT22;2719;53.624;9.786;2024-02-28T10:29:50;7.10;1.00
5392;DHT22;2719;53.624;9.786;2024-02-28T10:32:17;7.10;1.00
5392;DHT22;2719;53.624;9.786;2024-02-28T10:34:44;7.20;1.00
5392;DHT22;2719;53.624;9.786;2024-02-28T10:37:12;7.20;1.00
5392;DHT22;2719;53.624;9.786;2024-02-28T10:39:41;7.20;1.00
5392;DHT22;2719;53.624;9.786;2024-02-28T10:42:09;7.20;1.00
5392;DHT22;2719;53.624;9.786;2024-02-28T10:44:39;7.30;1.00
5392;DHT22;2719;53.624;9.786;2024-02-28T10:47:08;7.20;1.00
5392;DHT22;2719;53.624;9.786;2024-02-28T10:49:34;7.20;19.80
5392;DHT22;2719;53.624;9.786;2024-02-28T10:52:03;7.10;99.90
5392;DHT22;2719;53.624;9.786;2024-02-28T10:54:31;7.10;99.90
5392;DHT22;2719;53.624;9.786;2024-02-28T10:57:00;7.00;99.90
5392;DHT22;2719;53.624;9.786;2024-02-28T10:59:28;6.90;99.90
5392;DHT22;2719;53.624;9.786;2024-02-28T11:01:56;6.90;1.00
5392;DHT22;2719;53.624;9.786;2024-02-28T11:04:22;6.80;99.90
5392;DHT22;2719;53.624;9.786;2024-02-28T11:06:51;6.70;99.90
5392;DHT22;2719;53.624;9.786;2024-02-28T11:09:21;6.80;99.90
5392;DHT22;2719;53.624;9.786;2024-02-28T11:11:51;6.80;1.00
5392;DHT22;2719;53.624;9.786;2024-02-28T11:14:20;6.80;1.00
5392;DHT22;2719;53.624;9.786;2024-02-28T11:16:59;6.80;1.00
5392;DHT22;2719;53.624;9.786;2024-02-28T11:19:28;6.80;1.00
5392;DHT22;2719;53.624;9.786;2024-02-28T11:21:55;6.90;99.90
5392;DHT22;2719;53.624;9.786;2024-02-28T11:24:23;6.80;1.00
5392;DHT22;2719;53.624;9.786;2024-02-28T11:26:50;6.90;1.00
5392;DHT22;2719;53.624;9.786;2024-02-28T11:29:23;6.80;23.40
5392;DHT22;2719;53.624;9.786;2024-02-28T11:31:50;6.80;99.90
5392;DHT22;2719;53.624;9.786;2024-02-28T11:34:17;6.80;99.90
5392;DHT22;2719;53.624;9.786;2024-02-28T11:36:47;6.90;1.00
5392;DHT22;2719;53.624;9.786;2024-02-28T11:39:14;6.90;1.00
5392;DHT22;2719;53.624;9.786;2024-02-28T11:41:41;6.90;1.00
5392;DHT22;2719;53.624;9.786;2024-02-28T11:44:07;7.00;99.90
5392;DHT22;2719;53.624;9.786;2024-02-28T11:46:35;7.00;1.00
5392;DHT22;2719;53.624;9.786;2024-02-28T11:49:02;7.00;1.00
5392;DHT22;2719;53.624;9.786;2024-02-28T11:51:31;7.00;1.00
5392;DHT22;2719;53.624;9.786;2024-02-28T11:54:00;7.00;70.90
5392;DHT22;2719;53.624;9.786;2024-02-28T11:56:27;6.90;1.00
5392;DHT22;2719;53.624;9.786;2024-02-28T11:58:54;6.90;99.90
5392;DHT22;2719;53.624;9.786;2024-02-28T12:01:34;6.80;99.90
5392;DHT22;2719;53.624;9.786;2024-02-28T12:04:02;6.80;99.90
5392;DHT22;2719;53.624;9.786;2024-02-28T12:06:29;6.80;99.10
5392;DHT22;2719;53.624;9.786;2024-02-28T12:08:56;6.80;99.90
5392;DHT22;2719;53.624;9.786;2024-02-28T12:11:24;6.80;1.00
5392;DHT22;2719;53.624;9.786;2024-02-28T12:13:53;6.90;99.90
5392;DHT22;2719;53.624;9.786;2024-02-28T12:16:22;6.90;1.00
5392;DHT22;2719;53.624;9.786;2024-02-28T12:18:51;6.90;99.90
5392;DHT22;2719;53.624;9.786;2024-02-28T12:21:18;7.00;99.90
5392;DHT22;2719;53.624;9.786;2024-02-28T12:23:44;7.00;1.00
5392;DHT22;2719;53.624;9.786;2024-02-28T12:26:11;7.00;1.00
5392;DHT22;2719;53.624;9.786;2024-02-28T12:28:38;7.00;1.00
5392;DHT22;2719;53.624;9.786;2024-02-28T12:31:05;7.00;1.00
5392;DHT22;2719;53.624;9.786;2024-02-28T12:33:34;6.80;1.00
5392;DHT22;2719;53.624;9.786;2024-02-28T12:36:02;6.90;99.90
5392;DHT22;2719;53.624;9.786;2024-02-28T12:38:30;6.90;1.00
5392;DHT22;2719;53.624;9.786;2024-02-28T12:40:57;7.00;1.00
5392;DHT22;2719;53.624;9.786;2024-02-28T12:43:23;7.00;49.10
5392;DHT22;2719;53.624;9.786;2024-02-28T12:45:50;7.00;50.50
5392;DHT22;2719;53.624;9.786;2024-02-28T12:48:17;7.00;99.90
5392;DHT22;2719;53.624;9.786;2024-02-28T12:50:44;7.10;1.00
5392;DHT22;2719;53.624;9.786;2024-02-28T12:53:12;7.00;1.00
5392;DHT22;2719;53.624;9.786;2024-02-28T12:55:39;7.00;99.90
5392;DHT22;2719;53.624;9.786;2024-02-28T12:58:07;7.00;1.00
5392;DHT22;2719;53.624;9.786;2024-02-28T13:00:33;7.00;1.00
5392;DHT22;2719;53.624;9.786;2024-02-28T13:03:00;7.00;1.00
5392;DHT22;2719;53.624;9.786;2024-02-28T13:05:26;7.00;99.90
5392;DHT22;2719;53.624;9.786;2024-02-28T13:07:53;7.00;1.00
5392;DHT22;2719;53.624;9.786;2024-02-28T13:10:21;7.10;1.00
5392;DHT22;2719;53.624;9.786;2024-02-28T13:12:48;7.10;1.00
5392;DHT22;2719;53.624;9.786;2024-02-28T13:15:15;7.00;1.00
5392;DHT22;2719;53.624;9.786;2024-02-28T13:17:41;7.00;1.00
5392;DHT22;2719;53.624;9.786;2024-02-28T13:20:08;6.90;1.00
5392;DHT22;2719;53.624;9.786;2024-02-28T13:22:35;7.00;1.00
5392;DHT22;2719;53.624;9.786;2024-02-28T13:25:02;6.90;1.00
5392;DHT22;2719;53.624;9.786;2024-02-28T13:27:30;6.90;1.00
5392;DHT22;2719;53.624;9.786;2024-02-28T13:29:57;6.90;1.00
5392;DHT22;2719;53.624;9.786;2024-02-28T13:32:23;7.00;1.00
5392;DHT22;2719;53.624;9.786;2024-02-28T13:34:50;7.00;1.00
5392;DHT22;2719;53.624;9.786;2024-02-28T13:37:17;7.10;1.00
5392;DHT22;2719;53.624;9.786;2024-02-28T13:39:43;7.10;1.00
5392;DHT22;2719;53.624;9.786;2024-02-28T13:42:11;7.10;1.00
5392;DHT22;2719;53.624;9.786;2024-02-28T13:44:39;7.20;1.00
5392;DHT22;2719;53.624;9.786;2024-02-28T13:47:06;7.20;1.00
5392;DHT22;2719;53.624;9.786;2024-02-28T13:49:32;7.20;1.00
5392;DHT22;2719;53.624;9.786;2024-02-28T13:51:59;7.20;1.00
5392;DHT22;2719;53.624;9.786;2024-02-28T13:54:27;7.20;1.00
5392;DHT22;2719;53.624;9.786;2024-02-28T13:56:53;7.20;1.00
5392;DHT22;2719;53.624;9.786;2024-02-28T13:59:20;7.20;1.00
5392;DHT22;2719;53.624;9.786;2024-02-28T14:01:48;7.20;1.00
5392;DHT22;2719;53.624;9.786;2024-02-28T14:04:14;7.20;1.00
5392;DHT22;2719;53.624;9.786;2024-02-28T14:06:41;7.20;1.00
5392;DHT22;2719;53.624;9.786;2024-02-28T14:09:08;7.10;1.00
5392;DHT22;2719;53.624;9.786;2024-02-28T14:11:34;7.10;1.00
5392;DHT22;2719;53.624;9.786;2024-02-28T14:14:01;7.10;1.00
5392;DHT22;2719;53.624;9.786;2024-02-28T14:16:28;7.10;1.00
5392;DHT22;2719;53.624;9.786;2024-02-28T14:18:58;7.10;1.00
5392;DHT22;2719;53.624;9.786;2024-02-28T14:21:25;7.10;1.00
5392;DHT22;2719;53.624;9.786;2024-02-28T14:23:52;7.20;1.00
5392;DHT22;2719;53.624;9.786;2024-02-28T14:26:19;7.20;1.00
5392;DHT22;2719;53.624;9.786;2024-02-28T14:28:49;7.20;1.00
5392;DHT22;2719;53.624;9.786;2024-02-28T14:31:15;7.20;1.00
5392;DHT22;2719;53.624;9.786;2024-02-28T14:33:42;7.30;1.00
5392;DHT22;2719;53.624;9.786;2024-02-28T14:36:10;7.30;1.00
5392;DHT22;2719;53.624;9.786;2024-02-28T14:38:37;7.20;1.00
5392;DHT22;2719;53.624;9.786;2024-02-28T14:41:04;7.30;1.00
5392;DHT22;2719;53.624;9.786;2024-02-28T14:43:32;7.30;1.00
5392;DHT22;2719;53.624;9.786;2024-02-28T14:45:59;7.20;1.00
5392;DHT22;2719;53.624;9.786;2024-02-28T14:48:26;7.20;1.00
5392;DHT22;2719;53.624;9.786;2024-02-28T14:50:53;7.30;1.00
5392;DHT22;2719;53.624;9.786;2024-02-28T14:53:21;7.20;1.00
5392;DHT22;2719;53.624;9.786;2024-02-28T14:55:48;7.20;1.00
5392;DHT22;2719;53.624;9.786;2024-02-28T14:58:15;7.20;1.00
5392;DHT22;2719;53.624;9.786;2024-02-28T15:00:42;7.30;1.00
5392;DHT22;2719;53.624;9.786;2024-02-28T15:03:12;7.30;1.00
5392;DHT22;2719;53.624;9.786;2024-02-28T15:05:39;7.30;1.00
5392;DHT22;2719;53.624;9.786;2024-02-28T15:08:06;7.30;99.90
5392;DHT22;2719;53.624;9.786;2024-02-28T15:10:34;7.30;1.00
5392;DHT22;2719;53.624;9.786;2024-02-28T15:13:01;7.30;99.90
5392;DHT22;2719;53.624;9.786;2024-02-28T15:15:27;7.30;1.00
5392;DHT22;2719;53.624;9.786;2024-02-28T15:17:54;7.30;1.00
5392;DHT22;2719;53.624;9.786;2024-02-28T15:20:20;7.40;1.00
5392;DHT22;2719;53.624;9.786;2024-02-28T15:22:49;7.40;1.00
5392;DHT22;2719;53.624;9.786;2024-02-28T15:25:15;7.30;1.00
5392;DHT22;2719;53.624;9.786;2024-02-28T15:27:43;7.30;1.00
5392;DHT22;2719;53.624;9.786;2024-02-28T15:30:11;7.30;1.00
5392;DHT22;2719;53.624;9.786;2024-02-28T15:32:38;7.30;1.00
5392;DHT22;2719;53.624;9.786;2024-02-28T15:35:05;7.40;1.00
5392;DHT22;2719;53.624;9.786;2024-02-28T15:37:31;7.30;1.00
5392;DHT22;2719;53.624;9.786;2024-02-28T15:39:58;7.30;1.00
5392;DHT22;2719;53.624;9.786;2024-02-28T15:42:25;7.40;1.00
5392;DHT22;2719;53.624;9.786;2024-02-28T15:44:53;7.40;1.00
5392;DHT22;2719;53.624;9.786;2024-02-28T15:47:20;7.40;1.00
5392;DHT22;2719;53.624;9.786;2024-02-28T15:49:47;7.40;1.00
5392;DHT22;2719;53.624;9.786;2024-02-28T15:52:14;7.20;1.00
5392;DHT22;2719;53.624;9.786;2024-02-28T15:54:40;7.20;1.00
5392;DHT22;2719;53.624;9.786;2024-02-28T15:57:07;7.20;1.00
5392;DHT22;2719;53.624;9.786;2024-02-28T15:59:34;7.20;1.00
5392;DHT22;2719;53.624;9.786;2024-02-28T16:02:03;7.10;1.00
5392;DHT22;2719;53.624;9.786;2024-02-28T16:04:29;7.20;1.00
5392;DHT22;2719;53.624;9.786;2024-02-28T16:06:56;7.10;1.00
5392;DHT22;2719;53.624;9.786;2024-02-28T16:09:25;7.10;1.00
5392;DHT22;2719;53.624;9.786;2024-02-28T16:11:52;7.20;1.00
5392;DHT22;2719;53.624;9.786;2024-02-28T16:14:19;7.20;1.00
5392;DHT22;2719;53.624;9.786;2024-02-28T16:16:45;7.10;1.00
5392;DHT22;2719;53.624;9.786;2024-02-28T16:19:14;7.10;1.00
5392;DHT22;2719;53.624;9.786;2024-02-28T16:21:40;7.00;1.00
5392;DHT22;2719;53.624;9.786;2024-02-28T16:24:07;7.00;1.00
5392;DHT22;2719;53.624;9.786;2024-02-28T16:26:33;7.00;1.00
5392;DHT22;2719;53.624;9.786;2024-02-28T16:29:00;7.00;1.00